createdAt,value
2019-04-22T00:01:23.143Z,16.50
2019-04-22T00:03:55.175Z,16.50
2019-04-22T00:06:48.283Z,16.40
2019-04-22T00:09:19.508Z,16.40
2019-04-22T00:11:54.259Z,16.40
2019-04-22T00:14:14.811Z,16.30
2019-04-22T00:16:53.590Z,16.30
2019-04-22T00:19:20.881Z,16.20
2019-04-22T00:21:55.302Z,16.20
2019-04-22T00:24:23.986Z,16.10
2019-04-22T00:26:58.865Z,16.10
2019-04-22T00:29:42.554Z,16.00
2019-04-22T00:32:04.954Z,16.00
2019-04-22T00:34:42.745Z,15.90
2019-04-22T00:37:17.559Z,15.90
2019-04-22T00:39:46.554Z,15.80
2019-04-22T00:42:18.160Z,15.80
2019-04-22T00:44:57.375Z,15.70
2019-04-22T00:47:23.140Z,15.70
2019-04-22T00:52:22.366Z,15.60
2019-04-22T00:54:59.478Z,15.60
2019-04-22T00:57:21.637Z,15.50
2019-04-22T00:59:52.365Z,15.50
2019-04-22T01:02:27.477Z,15.50
2019-04-22T01:04:55.969Z,15.40
2019-04-22T01:07:27.055Z,15.40
2019-04-22T01:09:58.887Z,15.30
2019-04-22T01:15:00.894Z,15.30
2019-04-22T01:17:34.487Z,15.20
2019-04-22T01:20:13.193Z,15.20
2019-04-22T01:22:27.898Z,15.20
2019-04-22T01:25:05.001Z,15.10
2019-04-22T01:27:32.392Z,15.10
2019-04-22T01:29:59.733Z,15.10
2019-04-22T01:32:22.903Z,15.10
2019-04-22T01:35:02.379Z,15.10
2019-04-22T01:37:35.915Z,15.00
2019-04-22T01:40:21.426Z,15.00
2019-04-22T01:42:54.421Z,15.00
2019-04-22T01:45:22.264Z,14.90
2019-04-22T01:48:02.833Z,14.90
2019-04-22T01:50:22.543Z,14.90
2019-04-22T01:52:53.155Z,14.90
2019-04-22T01:55:27.435Z,14.90
2019-04-22T01:57:47.594Z,14.90
2019-04-22T02:00:16.433Z,14.80
2019-04-22T02:03:02.456Z,14.80
2019-04-22T02:05:22.846Z,14.80
2019-04-22T02:08:02.561Z,14.70
2019-04-22T02:10:37.030Z,14.80
2019-04-22T02:13:02.037Z,14.80
2019-04-22T02:15:47.763Z,14.70
2019-04-22T02:18:03.358Z,14.70
2019-04-22T02:20:32.994Z,14.70
2019-04-22T02:23:40.229Z,14.70
2019-04-22T02:25:59.310Z,14.60
2019-04-22T02:28:33.979Z,14.60
2019-04-22T02:33:54.398Z,14.50
2019-04-22T02:46:26.721Z,14.40
2019-04-22T02:51:10.352Z,14.30
2019-04-22T02:54:17.233Z,14.30
2019-04-22T02:56:23.071Z,14.30
2019-04-22T02:58:55.129Z,14.30
2019-04-22T03:06:24.087Z,14.10
2019-04-22T03:08:45.968Z,14.10
2019-04-22T03:24:15.677Z,14.10
2019-04-22T03:26:27.232Z,14.00
2019-04-22T03:29:04.658Z,14.00
2019-04-22T03:37:23.212Z,14.00
2019-04-22T03:49:56.538Z,13.90
2019-04-22T03:52:14.792Z,13.90
2019-04-22T03:54:54.521Z,13.80
2019-04-22T04:02:16.205Z,13.90
2019-04-22T04:04:37.107Z,13.90
2019-04-22T04:07:22.521Z,13.90
2019-04-22T04:09:50.005Z,13.90
2019-04-22T04:14:58.170Z,13.90
2019-04-22T04:20:03.412Z,13.80
2019-04-22T04:22:33.917Z,13.80
2019-04-22T04:27:43.563Z,13.80
2019-04-22T04:30:08.322Z,13.80
2019-04-22T04:32:34.318Z,13.80
2019-04-22T04:35:19.436Z,13.80
2019-04-22T04:37:40.669Z,13.80
2019-04-22T04:47:43.825Z,13.90
2019-04-22T04:50:09.295Z,13.90
2019-04-22T04:55:12.334Z,14.00
2019-04-22T05:02:46.622Z,14.00
2019-04-22T05:15:11.318Z,14.10
2019-04-22T05:22:39.953Z,14.10
2019-04-22T05:25:14.667Z,14.20
2019-04-22T05:27:40.019Z,14.20
2019-04-22T05:35:14.275Z,14.20
2019-04-22T05:37:45.735Z,14.20
2019-04-22T05:40:20.260Z,14.20
2019-04-22T05:42:44.200Z,14.30
2019-04-22T05:45:17.893Z,14.20
2019-04-22T05:47:47.048Z,14.30
2019-04-22T05:52:54.416Z,14.30
2019-04-22T05:55:30.518Z,14.40
2019-04-22T05:58:08.655Z,14.50
2019-04-22T06:03:11.125Z,14.60
2019-04-22T06:05:32.070Z,14.60
2019-04-22T06:08:02.435Z,14.70
2019-04-22T06:13:02.234Z,14.80
2019-04-22T06:15:36.313Z,14.80
2019-04-22T06:18:16.255Z,14.90
2019-04-22T06:20:57.567Z,14.90
2019-04-22T06:23:24.185Z,15.00
2019-04-22T06:28:29.083Z,15.10
2019-04-22T06:33:24.161Z,15.20
2019-04-22T06:36:00.478Z,15.40
2019-04-22T06:40:58.424Z,15.40
2019-04-22T06:43:22.437Z,15.40
2019-04-22T06:45:51.651Z,15.40
2019-04-22T06:51:18.360Z,15.60
2019-04-22T06:53:32.736Z,15.60
2019-04-22T06:56:00.297Z,15.60
2019-04-22T06:58:29.052Z,15.60
2019-04-22T07:01:05.680Z,15.70
2019-04-22T07:03:41.724Z,15.90
2019-04-22T07:06:08.049Z,15.90
2019-04-22T07:11:04.555Z,16.10
2019-04-22T07:13:56.308Z,16.20
2019-04-22T07:16:03.624Z,16.20
2019-04-22T07:21:06.573Z,16.40
2019-04-22T07:26:07.630Z,16.60
2019-04-22T07:28:37.163Z,16.60
2019-04-22T07:31:28.943Z,16.70
2019-04-22T07:33:49.840Z,16.70
2019-04-22T07:38:45.613Z,16.90
2019-04-22T07:41:14.707Z,17.00
2019-04-22T07:46:18.633Z,17.20
2019-04-22T07:48:53.170Z,17.20
2019-04-22T07:51:23.418Z,17.30
2019-04-22T07:53:57.465Z,17.40
2019-04-22T07:56:24.701Z,17.60
2019-04-22T07:58:56.858Z,17.70
2019-04-22T08:01:26.893Z,17.80
2019-04-22T08:06:31.344Z,17.80
2019-04-22T08:09:00.265Z,17.90
2019-04-22T08:11:46.996Z,17.90
2019-04-22T08:14:01.568Z,17.90
2019-04-22T08:16:37.073Z,18.10
2019-04-22T08:19:10.542Z,18.10
2019-04-22T08:21:38.393Z,18.20
2019-04-22T08:24:07.878Z,18.40
2019-04-22T08:26:42.054Z,18.40
2019-04-22T08:29:17.182Z,18.60
2019-04-22T08:31:49.182Z,18.70
2019-04-22T08:34:14.203Z,18.80
2019-04-22T08:39:21.720Z,19.00
2019-04-22T08:41:39.966Z,19.00
2019-04-22T08:44:17.368Z,18.90
2019-04-22T08:46:56.178Z,19.10
2019-04-22T08:49:16.080Z,19.30
2019-04-22T08:51:49.450Z,19.40
2019-04-22T08:54:25.966Z,19.50
2019-04-22T08:56:52.431Z,19.60
2019-04-22T08:59:43.200Z,20.00
2019-04-22T09:02:05.395Z,20.20
2019-04-22T09:04:23.371Z,20.40
2019-04-22T09:09:34.028Z,20.70
2019-04-22T09:12:00.260Z,20.70
2019-04-22T09:14:37.881Z,20.70
2019-04-22T09:19:38.551Z,20.50
2019-04-22T09:24:36.927Z,20.40
2019-04-22T09:27:13.134Z,20.60
2019-04-22T09:29:39.722Z,20.70
2019-04-22T09:32:14.850Z,20.80
2019-04-22T09:34:49.635Z,20.90
2019-04-22T09:37:20.775Z,21.10
2019-04-22T09:39:51.642Z,21.20
2019-04-22T09:42:21.925Z,21.50
2019-04-22T09:44:47.524Z,21.90
2019-04-22T09:47:19.231Z,21.90
2019-04-22T09:52:14.977Z,21.90
2019-04-22T09:57:24.511Z,21.60
2019-04-22T10:00:00.643Z,21.70
2019-04-22T10:05:00.204Z,21.90
2019-04-22T10:07:32.133Z,22.00
2019-04-22T10:10:03.283Z,22.00
2019-04-22T10:12:32.233Z,22.10
2019-04-22T10:15:00.140Z,22.20
2019-04-22T10:17:32.298Z,22.40
2019-04-22T10:19:59.656Z,22.50
2019-04-22T10:22:44.004Z,22.30
2019-04-22T10:25:08.260Z,22.50
2019-04-22T10:27:32.460Z,22.50
2019-04-22T10:30:02.774Z,22.70
2019-04-22T10:32:35.372Z,22.80
2019-04-22T10:35:14.682Z,23.00
2019-04-22T10:37:40.565Z,23.00
2019-04-22T10:40:17.757Z,23.10
2019-04-22T10:42:47.389Z,23.20
2019-04-22T10:45:18.376Z,23.20
2019-04-22T10:47:48.052Z,23.30
2019-04-22T10:50:18.697Z,23.40
2019-04-22T10:52:48.038Z,23.00
2019-04-22T10:55:17.378Z,23.20
2019-04-22T10:57:46.679Z,23.30
2019-04-22T11:00:17.670Z,23.50
2019-04-22T11:02:47.825Z,23.70
2019-04-22T11:05:17.413Z,23.90
2019-04-22T11:07:53.977Z,23.60
2019-04-22T11:10:34.596Z,23.60
2019-04-22T11:12:49.337Z,23.50
2019-04-22T11:15:18.790Z,23.70
2019-04-22T11:17:49.593Z,24.10
2019-04-22T11:20:19.924Z,23.90
2019-04-22T11:22:50.924Z,23.80
2019-04-22T11:25:21.669Z,23.90
2019-04-22T11:27:51.361Z,23.90
2019-04-22T11:30:24.299Z,23.90
2019-04-22T11:32:52.190Z,24.20
2019-04-22T11:35:21.972Z,24.20
2019-04-22T11:37:52.442Z,24.50
2019-04-22T11:40:28.563Z,24.80
2019-04-22T11:42:54.433Z,24.90
2019-04-22T11:45:24.116Z,25.30
2019-04-22T11:47:53.514Z,25.50
2019-04-22T11:50:24.218Z,25.30
2019-04-22T11:52:55.007Z,25.10
2019-04-22T11:55:24.734Z,25.20
2019-04-22T11:57:54.143Z,25.20
2019-04-22T12:00:30.751Z,25.50
2019-04-22T12:03:00.873Z,25.50
2019-04-22T12:05:30.470Z,25.50
2019-04-22T12:08:02.826Z,25.60
2019-04-22T12:10:38.951Z,25.80
2019-04-22T12:13:04.011Z,26.20
2019-04-22T12:15:33.297Z,26.30
2019-04-22T12:18:03.705Z,26.30
2019-04-22T12:20:33.131Z,26.20
2019-04-22T12:23:03.249Z,26.20
2019-04-22T12:25:43.418Z,25.90
2019-04-22T12:28:05.213Z,25.70
2019-04-22T12:30:35.253Z,25.80
2019-04-22T12:33:07.343Z,25.60
2019-04-22T12:35:36.931Z,25.70
2019-04-22T12:38:08.863Z,25.90
2019-04-22T12:40:46.436Z,26.30
2019-04-22T12:43:10.723Z,26.50
2019-04-22T12:45:40.376Z,26.40
2019-04-22T12:48:10.147Z,26.40
2019-04-22T12:50:43.442Z,26.10
2019-04-22T12:53:14.956Z,26.30
2019-04-22T12:55:42.045Z,26.50
2019-04-22T12:58:11.835Z,26.50
2019-04-22T13:00:42.773Z,26.30
2019-04-22T13:03:13.694Z,26.50
2019-04-22T13:05:43.135Z,26.80
2019-04-22T13:08:13.763Z,26.90
2019-04-22T13:10:53.371Z,27.20
2019-04-22T13:13:15.418Z,27.40
2019-04-22T13:15:44.769Z,27.60
2019-04-22T13:18:27.152Z,27.60
2019-04-22T13:20:46.282Z,27.20
2019-04-22T13:23:15.790Z,27.30
2019-04-22T13:25:45.178Z,27.30
2019-04-22T13:28:15.472Z,27.20
2019-04-22T13:30:46.405Z,27.10
2019-04-22T13:33:16.793Z,26.80
2019-04-22T13:35:47.808Z,27.30
2019-04-22T13:38:17.486Z,27.40
2019-04-22T13:41:00.943Z,27.40
2019-04-22T13:43:18.920Z,27.00
2019-04-22T13:45:49.788Z,26.60
2019-04-22T13:48:40.026Z,26.50
2019-04-22T13:51:25.748Z,26.40
2019-04-22T13:54:14.395Z,26.70
2019-04-22T13:56:15.534Z,27.00
2019-04-22T13:58:38.212Z,27.30
2019-04-22T14:00:56.645Z,27.40
2019-04-22T14:03:48.955Z,27.70
2019-04-22T14:06:18.685Z,28.00
2019-04-22T14:08:49.432Z,28.30
2019-04-22T14:11:27.720Z,27.80
2019-04-22T14:13:50.267Z,27.40
2019-04-22T14:16:19.720Z,27.40
2019-04-22T14:18:49.788Z,27.50
2019-04-22T14:21:20.855Z,27.70
2019-04-22T14:23:50.898Z,27.70
2019-04-22T14:26:20.368Z,28.00
2019-04-22T14:28:50.073Z,27.80
2019-04-22T14:31:20.397Z,27.70
2019-04-22T14:33:53.373Z,27.70
2019-04-22T14:36:21.353Z,27.70
2019-04-22T14:38:52.207Z,27.50
2019-04-22T14:41:40.662Z,27.10
2019-04-22T14:46:49.334Z,27.30
2019-04-22T14:49:17.811Z,27.50
2019-04-22T14:51:48.474Z,27.60
2019-04-22T14:54:13.962Z,27.30
2019-04-22T14:56:28.666Z,27.00
2019-04-22T14:58:58.844Z,27.10
2019-04-22T15:01:28.789Z,27.00
2019-04-22T15:03:58.798Z,27.00
2019-04-22T15:06:28.586Z,27.10
2019-04-22T15:08:59.606Z,26.90
2019-04-22T15:11:36.324Z,27.00
2019-04-22T15:14:01.314Z,27.20
2019-04-22T15:17:02.662Z,26.90
2019-04-22T15:19:38.010Z,26.90
2019-04-22T15:22:08.487Z,26.60
2019-04-22T15:24:38.789Z,26.40
2019-04-22T15:27:08.770Z,26.40
2019-04-22T15:29:39.060Z,26.50
2019-04-22T15:32:09.355Z,26.80
2019-04-22T15:34:39.528Z,26.90
2019-04-22T15:37:08.852Z,27.10
2019-04-22T15:39:39.439Z,27.00
2019-04-22T15:42:14.534Z,26.50
2019-04-22T15:44:40.029Z,26.30
2019-04-22T15:47:11.006Z,26.50
2019-04-22T15:49:40.560Z,26.60
2019-04-22T15:52:10.463Z,26.80
2019-04-22T15:54:39.865Z,26.50
2019-04-22T15:57:10.791Z,26.50
2019-04-22T15:59:59.326Z,26.40
2019-04-22T16:02:14.011Z,26.20
2019-04-22T16:04:44.503Z,26.20
2019-04-22T16:07:14.807Z,26.00
2019-04-22T16:09:45.619Z,25.90
2019-04-22T16:12:22.712Z,25.80
2019-04-22T16:14:51.332Z,25.70
2019-04-22T16:17:16.993Z,25.70
2019-04-22T16:19:46.693Z,25.70
2019-04-22T16:22:18.980Z,25.50
2019-04-22T16:25:11.376Z,25.30
2019-04-22T16:27:42.643Z,25.40
2019-04-22T16:30:13.223Z,25.60
2019-04-22T16:32:43.512Z,25.70
2019-04-22T16:35:14.513Z,25.60
2019-04-22T16:37:43.852Z,25.60
2019-04-22T16:40:14.639Z,25.70
2019-04-22T16:42:52.459Z,25.50
2019-04-22T16:45:17.784Z,25.50
2019-04-22T16:47:47.131Z,25.40
2019-04-22T16:50:18.075Z,25.00
2019-04-22T16:52:48.173Z,24.90
2019-04-22T16:55:18.924Z,24.90
2019-04-22T16:57:48.433Z,24.80
2019-04-22T17:00:18.673Z,24.40
2019-04-22T17:03:06.740Z,24.20
2019-04-22T17:05:59.301Z,24.00
2019-04-22T17:08:28.700Z,23.80
2019-04-22T17:10:57.966Z,23.50
2019-04-22T17:13:30.607Z,23.40
2019-04-22T17:16:00.503Z,23.40
2019-04-22T17:18:29.214Z,23.40
2019-04-22T17:20:58.622Z,23.30
2019-04-22T17:23:28.000Z,23.30
2019-04-22T17:25:58.340Z,23.20
2019-04-22T17:28:27.920Z,23.20
2019-04-22T17:30:57.540Z,23.10
2019-04-22T17:33:28.738Z,23.10
2019-04-22T17:35:59.097Z,23.20
2019-04-22T17:38:37.166Z,23.10
2019-04-22T17:41:12.701Z,23.10
2019-04-22T17:43:54.389Z,23.00
2019-04-22T17:46:48.221Z,23.00
2019-04-22T17:49:37.685Z,23.10
2019-04-22T17:54:50.300Z,22.90
2019-04-22T17:57:24.014Z,22.90
2019-04-22T17:59:51.910Z,22.80
2019-04-22T18:02:25.036Z,22.80
2019-04-22T18:04:43.929Z,22.70
2019-04-22T18:12:40.146Z,22.20
2019-04-22T18:15:19.174Z,22.00
2019-04-22T18:17:41.109Z,21.90
2019-04-22T18:20:04.708Z,21.60
2019-04-22T18:22:29.459Z,21.40
2019-04-22T18:25:02.067Z,21.30
2019-04-22T18:27:48.947Z,21.20
2019-04-22T18:30:08.123Z,21.00
2019-04-22T18:32:43.829Z,20.90
2019-04-22T18:35:26.223Z,20.80
2019-04-22T18:38:16.527Z,20.70
2019-04-22T18:40:34.783Z,20.50
2019-04-22T18:43:13.568Z,20.40
2019-04-22T18:48:05.254Z,20.20
2019-04-22T18:50:53.386Z,20.10
2019-04-22T18:53:27.319Z,20.00
2019-04-22T18:56:03.725Z,19.90
2019-04-22T18:58:32.240Z,19.80
2019-04-22T19:00:50.833Z,19.60
2019-04-22T19:03:24.279Z,19.50
2019-04-22T19:06:24.345Z,19.40
2019-04-22T19:08:43.034Z,19.30
2019-04-22T19:11:16.660Z,19.30
2019-04-22T19:16:33.405Z,19.20
2019-04-22T19:19:05.281Z,19.10
2019-04-22T19:21:16.243Z,19.00
2019-04-22T19:23:52.104Z,18.80
2019-04-22T19:26:32.476Z,18.70
2019-04-22T19:28:54.130Z,18.70
2019-04-22T19:31:24.679Z,18.60
2019-04-22T19:34:00.779Z,18.50
2019-04-22T19:36:25.747Z,18.40
2019-04-22T19:38:55.240Z,18.30
2019-04-22T19:41:30.590Z,18.30
2019-04-22T19:44:05.438Z,18.10
2019-04-22T19:46:28.597Z,18.10
2019-04-22T19:49:04.622Z,18.00
2019-04-22T19:51:38.388Z,17.90
2019-04-22T19:54:01.139Z,17.80
2019-04-22T19:56:29.517Z,17.80
2019-04-22T19:59:03.206Z,17.70
2019-04-22T20:02:03.844Z,17.60
2019-04-22T20:04:52.908Z,17.60
2019-04-22T20:07:26.302Z,17.60
2019-04-22T20:10:00.135Z,17.50
2019-04-22T20:12:27.873Z,17.40
2019-04-22T20:14:57.608Z,17.40
2019-04-22T20:17:31.645Z,17.30
2019-04-22T20:20:06.340Z,17.30
2019-04-22T20:22:29.922Z,17.20
2019-04-22T20:24:51.092Z,17.20
2019-04-22T20:27:33.280Z,17.30
2019-04-22T20:30:05.065Z,17.40
2019-04-22T20:32:36.111Z,17.40
2019-04-22T20:35:07.898Z,17.40
2019-04-22T20:37:39.908Z,17.30
2019-04-22T20:40:05.716Z,17.10
2019-04-22T20:42:43.636Z,16.90
2019-04-22T20:45:13.084Z,16.80
2019-04-22T20:47:34.103Z,16.70
2019-04-22T20:50:14.998Z,16.60
2019-04-22T20:52:50.797Z,16.50
2019-04-22T20:55:10.771Z,16.50
2019-04-22T20:57:47.992Z,16.40
2019-04-22T21:00:11.553Z,16.40
2019-04-22T21:02:37.640Z,16.40
2019-04-22T21:05:09.462Z,16.30
2019-04-22T21:07:47.932Z,16.20
2019-04-22T21:10:15.776Z,16.20
2019-04-22T21:12:41.798Z,16.10
2019-04-22T21:15:29.931Z,16.10
2019-04-22T21:17:53.518Z,16.00
2019-04-22T21:20:34.439Z,15.90
2019-04-22T21:22:58.448Z,15.90
2019-04-22T21:25:20.780Z,15.80
2019-04-22T21:28:06.202Z,15.70
2019-04-22T21:30:32.370Z,15.70
2019-04-22T21:32:58.354Z,15.60
2019-04-22T21:35:59.449Z,15.60
2019-04-22T21:38:09.818Z,15.60
2019-04-22T21:40:39.758Z,15.50
2019-04-22T21:43:12.031Z,15.50
2019-04-22T21:45:45.419Z,15.40
2019-04-22T21:48:28.112Z,15.30
2019-04-22T21:50:57.694Z,15.30
2019-04-22T21:53:31.502Z,15.20
2019-04-22T21:56:10.136Z,15.20
2019-04-22T21:58:31.799Z,15.20
2019-04-22T22:01:22.200Z,15.10
2019-04-22T22:03:55.792Z,15.00
2019-04-22T22:06:15.102Z,15.00
2019-04-22T22:08:57.865Z,14.90
2019-04-22T22:11:30.310Z,14.90
2019-04-22T22:14:01.934Z,14.80
2019-04-22T22:16:29.139Z,14.80
2019-04-22T22:19:08.165Z,14.70
2019-04-22T22:21:47.756Z,14.70
2019-04-22T22:24:30.049Z,14.60
2019-04-22T22:26:55.947Z,14.60
2019-04-22T22:29:43.266Z,14.50
2019-04-22T22:32:05.331Z,14.50
2019-04-22T22:34:31.466Z,14.40
2019-04-22T22:36:55.750Z,14.40
2019-04-22T22:39:28.119Z,14.40
2019-04-22T22:41:44.142Z,14.30
2019-04-22T22:44:21.107Z,14.30
2019-04-22T22:47:05.890Z,14.30
2019-04-22T22:49:45.192Z,14.20
2019-04-22T22:52:31.725Z,14.10
2019-04-22T22:54:43.958Z,14.10
2019-04-22T22:57:17.916Z,14.00
2019-04-22T22:59:38.950Z,14.00
2019-04-22T23:02:08.061Z,14.00
2019-04-22T23:04:45.379Z,13.90
2019-04-22T23:07:20.836Z,13.90
2019-04-22T23:09:47.350Z,13.90
2019-04-22T23:12:31.196Z,13.80
2019-04-22T23:14:50.045Z,13.80
2019-04-22T23:17:05.177Z,13.80
2019-04-22T23:19:28.098Z,13.70
2019-04-22T23:22:05.284Z,13.70
2019-04-22T23:25:19.186Z,13.70
2019-04-22T23:27:47.678Z,13.60
2019-04-22T23:30:36.232Z,13.60
2019-04-22T23:33:26.581Z,13.60
2019-04-22T23:36:15.082Z,13.50
2019-04-22T23:39:02.382Z,13.50
2019-04-22T23:41:51.361Z,13.40
2019-04-22T23:44:10.036Z,13.40
2019-04-22T23:46:56.697Z,13.40
2019-04-22T23:49:25.166Z,13.40
2019-04-22T23:52:08.904Z,13.40
2019-04-22T23:54:48.554Z,13.30
2019-04-22T23:57:06.198Z,13.30
2019-04-22T23:59:49.795Z,13.30
